createdAt,value
2023-03-29T00:00:03.313Z,101178.91
2023-03-29T00:02:33.762Z,101180.16
2023-03-29T00:05:04.898Z,101178.30
2023-03-29T00:07:35.265Z,101174.77
2023-03-29T00:10:08.013Z,101176.05
2023-03-29T00:12:39.588Z,101170.07
2023-03-29T00:15:11.596Z,101164.74
2023-03-29T00:17:41.905Z,101159.98
2023-03-29T00:20:13.841Z,101159.55
2023-03-29T00:22:46.678Z,101153.45
2023-03-29T00:25:17.115Z,101156.09
2023-03-29T00:27:47.702Z,101148.45
2023-03-29T00:30:18.305Z,101149.48
2023-03-29T00:32:49.085Z,101148.48
2023-03-29T00:35:20.031Z,101147.20
2023-03-29T00:37:53.637Z,101144.94
2023-03-29T00:40:24.310Z,101142.05
2023-03-29T00:42:56.125Z,101135.59
2023-03-29T00:45:30.470Z,101139.26
2023-03-29T00:48:06.238Z,101138.50
2023-03-29T00:50:42.167Z,101129.76
2023-03-29T00:53:15.858Z,101129.28
2023-03-29T00:55:52.620Z,101125.00
2023-03-29T00:58:28.384Z,101124.88
2023-03-29T01:01:03.072Z,101122.40
2023-03-29T01:03:41.522Z,101120.88
2023-03-29T01:06:14.629Z,101115.35
2023-03-29T01:08:51.103Z,101113.55
2023-03-29T01:11:26.554Z,101107.75
2023-03-29T01:14:03.650Z,101103.50
2023-03-29T01:16:36.224Z,101098.63
2023-03-29T01:19:08.372Z,101094.59
2023-03-29T01:21:44.721Z,101092.11
2023-03-29T01:24:34.312Z,101091.02
2023-03-29T01:27:12.528Z,101086.91
2023-03-29T01:29:47.445Z,101082.46
2023-03-29T01:32:23.391Z,101076.81
2023-03-29T01:34:59.558Z,101074.40
2023-03-29T01:37:36.302Z,101071.81
2023-03-29T01:40:07.959Z,101062.69
2023-03-29T01:42:48.412Z,101059.90
2023-03-29T01:45:25.412Z,101051.67
2023-03-29T01:48:02.588Z,101049.92
2023-03-29T01:50:44.253Z,101052.81
2023-03-29T01:53:24.212Z,101051.34
2023-03-29T01:55:57.290Z,101055.33
2023-03-29T01:58:33.619Z,101052.81
2023-03-29T02:01:10.421Z,101047.69
2023-03-29T02:03:49.724Z,101049.11
2023-03-29T02:06:23.749Z,101048.63
2023-03-29T02:08:55.654Z,101049.59
2023-03-29T02:11:29.232Z,101052.27
2023-03-29T02:13:59.985Z,101044.63
2023-03-29T02:16:35.402Z,101043.02
2023-03-29T02:19:07.836Z,101045.61
2023-03-29T02:21:48.267Z,101042.23
2023-03-29T02:24:21.196Z,101037.56
2023-03-29T02:26:52.573Z,101036.52
2023-03-29T02:29:23.476Z,101035.56
2023-03-29T02:31:59.561Z,101036.30
2023-03-29T02:34:37.651Z,101032.30
2023-03-29T02:37:11.721Z,101030.27
2023-03-29T02:39:42.894Z,101024.57
2023-03-29T02:42:14.698Z,101019.02
2023-03-29T02:44:46.828Z,101016.84
2023-03-29T02:47:21.877Z,101013.95
2023-03-29T02:49:53.408Z,101013.66
2023-03-29T02:52:27.735Z,101007.39
2023-03-29T02:55:00.364Z,101011.35
2023-03-29T02:57:32.426Z,101008.01
2023-03-29T03:00:07.041Z,101004.02
2023-03-29T03:02:37.831Z,100998.06
2023-03-29T03:05:09.773Z,100995.69
2023-03-29T03:07:40.559Z,100992.31
2023-03-29T03:10:12.647Z,100989.51
2023-03-29T03:12:42.971Z,100988.98
2023-03-29T03:15:14.637Z,100989.16
2023-03-29T03:17:46.444Z,100987.13
2023-03-29T03:20:17.712Z,100984.85
2023-03-29T03:22:49.134Z,100983.27
2023-03-29T03:25:21.243Z,100981.88
2023-03-29T03:27:53.186Z,100984.13
2023-03-29T03:30:24.473Z,100984.16
2023-03-29T03:32:55.669Z,100978.86
2023-03-29T03:35:26.150Z,100979.53
2023-03-29T03:37:56.472Z,100983.18
2023-03-29T03:40:28.429Z,100983.14
2023-03-29T03:42:58.949Z,100982.95
2023-03-29T03:45:29.334Z,100979.91
2023-03-29T03:48:00.009Z,100976.12
2023-03-29T03:50:31.305Z,100976.04
2023-03-29T03:53:01.676Z,100972.55
2023-03-29T03:55:32.427Z,100962.27
2023-03-29T03:58:02.820Z,100963.77
2023-03-29T04:00:33.547Z,100958.13
2023-03-29T04:03:06.048Z,100956.13
2023-03-29T04:05:40.035Z,100958.52
2023-03-29T04:08:10.796Z,100964.03
2023-03-29T04:10:41.787Z,100954.40
2023-03-29T04:13:12.061Z,100949.26
2023-03-29T04:15:42.364Z,100955.20
2023-03-29T04:18:12.965Z,100952.11
2023-03-29T04:20:44.467Z,100940.96
2023-03-29T04:23:15.007Z,100947.30
2023-03-29T04:25:45.333Z,100940.98
2023-03-29T04:28:16.258Z,100931.59
2023-03-29T04:30:48.971Z,100929.57
2023-03-29T04:33:19.420Z,100925.32
2023-03-29T04:35:49.761Z,100925.92
2023-03-29T04:38:23.146Z,100926.64
2023-03-29T04:40:55.752Z,100925.77
2023-03-29T04:43:26.447Z,100927.90
2023-03-29T04:45:57.778Z,100922.55
2023-03-29T04:48:30.193Z,100917.16
2023-03-29T04:51:01.091Z,100919.36
2023-03-29T04:53:31.794Z,100913.53
2023-03-29T04:56:03.009Z,100914.25
2023-03-29T04:58:33.613Z,100915.89
2023-03-29T05:01:04.175Z,100920.80
2023-03-29T05:03:35.650Z,100915.89
2023-03-29T05:06:08.709Z,100911.95
2023-03-29T05:08:40.065Z,100915.34
2023-03-29T05:11:13.554Z,100919.96
2023-03-29T05:13:44.148Z,100917.05
2023-03-29T05:16:15.866Z,100921.20
2023-03-29T05:18:46.691Z,100915.81
2023-03-29T05:21:17.117Z,100916.13
2023-03-29T05:23:47.478Z,100914.77
2023-03-29T05:26:18.163Z,100913.75
2023-03-29T05:28:48.797Z,100914.55
2023-03-29T05:31:19.917Z,100913.23
2023-03-29T05:33:51.161Z,100908.05
2023-03-29T05:36:21.724Z,100904.13
2023-03-29T05:38:53.279Z,100905.96
2023-03-29T05:41:24.719Z,100899.61
2023-03-29T05:43:55.349Z,100898.70
2023-03-29T05:46:25.687Z,100899.18
2023-03-29T05:48:56.041Z,100897.29
2023-03-29T05:51:26.537Z,100897.27
2023-03-29T05:53:56.889Z,100893.11
2023-03-29T05:56:27.972Z,100883.83
2023-03-29T05:58:58.633Z,100885.54
2023-03-29T06:01:29.717Z,100885.44
2023-03-29T06:04:00.892Z,100888.88
2023-03-29T06:06:37.906Z,100890.03
2023-03-29T06:09:08.353Z,100889.32
2023-03-29T06:11:39.304Z,100888.98
2023-03-29T06:14:10.303Z,100895.13
2023-03-29T06:16:42.863Z,100897.41
2023-03-29T06:19:16.064Z,100894.57
2023-03-29T06:21:47.262Z,100894.43
2023-03-29T06:24:17.645Z,100894.21
2023-03-29T06:26:48.007Z,100894.18
2023-03-29T06:29:18.826Z,100892.44
2023-03-29T06:31:49.713Z,100889.45
2023-03-29T06:34:21.685Z,100887.75
2023-03-29T06:36:52.956Z,100888.95
2023-03-29T06:39:23.428Z,100890.27
2023-03-29T06:41:55.359Z,100890.23
2023-03-29T06:44:28.337Z,100889.01
2023-03-29T06:46:58.637Z,100891.66
2023-03-29T06:49:29.255Z,100891.35
2023-03-29T06:52:00.433Z,100891.77
2023-03-29T06:54:31.304Z,100891.32
2023-03-29T06:57:02.010Z,100889.48
2023-03-29T06:59:33.433Z,100888.21
2023-03-29T07:02:03.873Z,100889.45
2023-03-29T07:04:35.262Z,100885.67
2023-03-29T07:07:07.695Z,100882.38
2023-03-29T07:09:39.892Z,100885.93
2023-03-29T07:12:11.217Z,100887.52
2023-03-29T07:14:42.236Z,100891.20
2023-03-29T07:17:13.533Z,100893.30
2023-03-29T07:19:44.218Z,100896.27
2023-03-29T07:22:15.271Z,100895.17
2023-03-29T07:24:45.710Z,100890.02
2023-03-29T07:27:16.809Z,100888.19
2023-03-29T07:29:48.403Z,100883.98
2023-03-29T07:32:18.728Z,100879.84
2023-03-29T07:34:49.333Z,100880.66
2023-03-29T07:37:19.675Z,100877.55
2023-03-29T07:39:50.835Z,100871.15
2023-03-29T07:42:21.206Z,100875.65
2023-03-29T07:44:52.062Z,100878.36
2023-03-29T07:47:23.206Z,100875.89
2023-03-29T07:49:53.542Z,100875.43
2023-03-29T07:52:24.154Z,100875.90
2023-03-29T07:54:55.515Z,100878.47
2023-03-29T07:57:27.456Z,100874.80
2023-03-29T07:59:58.119Z,100868.11
2023-03-29T08:02:29.111Z,100868.23
2023-03-29T08:04:59.627Z,100863.13
2023-03-29T08:07:29.943Z,100862.23
2023-03-29T08:10:00.588Z,100865.70
2023-03-29T08:12:31.172Z,100868.27
2023-03-29T08:15:01.841Z,100869.19
2023-03-29T08:17:32.187Z,100871.93
2023-03-29T08:20:02.645Z,100868.15
2023-03-29T08:22:34.148Z,100868.88
2023-03-29T08:25:05.499Z,100870.04
2023-03-29T08:27:37.561Z,100863.71
2023-03-29T08:30:09.621Z,100868.40
2023-03-29T08:32:40.884Z,100863.98
2023-03-29T08:35:12.677Z,100867.10
2023-03-29T08:37:43.010Z,100858.73
2023-03-29T08:40:21.397Z,100862.73
2023-03-29T08:43:18.412Z,100862.84
2023-03-29T08:46:02.324Z,100867.29
2023-03-29T08:48:36.165Z,100868.84
2023-03-29T08:51:13.597Z,100868.73
2023-03-29T08:53:48.136Z,100866.48
2023-03-29T08:56:24.896Z,100865.55
2023-03-29T08:58:57.636Z,100869.72
2023-03-29T09:01:33.630Z,100872.88
2023-03-29T09:04:09.591Z,100875.41
2023-03-29T09:06:41.493Z,100873.20
2023-03-29T09:09:18.544Z,100873.38
2023-03-29T09:12:02.763Z,100871.82
2023-03-29T09:14:51.137Z,100870.35
2023-03-29T09:17:34.333Z,100865.02
2023-03-29T09:20:12.477Z,100868.23
2023-03-29T09:22:52.028Z,100864.80
2023-03-29T09:25:27.421Z,100862.95
2023-03-29T09:28:05.487Z,100864.10
2023-03-29T09:30:41.537Z,100860.79
2023-03-29T09:33:21.016Z,100861.48
2023-03-29T09:35:56.293Z,100855.73
2023-03-29T09:38:27.350Z,100857.50
2023-03-29T09:41:01.856Z,100852.29
2023-03-29T09:43:36.592Z,100846.41
2023-03-29T09:46:16.076Z,100840.27
2023-03-29T09:48:48.334Z,100833.21
2023-03-29T09:51:21.884Z,100835.16
2023-03-29T09:53:52.773Z,100839.02
2023-03-29T09:56:23.134Z,100839.39
2023-03-29T09:58:53.485Z,100840.56
2023-03-29T10:01:25.913Z,100841.30
2023-03-29T10:03:57.959Z,100844.13
2023-03-29T10:06:29.374Z,100842.61
2023-03-29T10:09:00.114Z,100836.17
2023-03-29T10:11:34.604Z,100834.28
2023-03-29T10:14:07.394Z,100838.31
2023-03-29T10:16:41.178Z,100834.86
2023-03-29T10:19:25.289Z,100835.13
2023-03-29T10:21:57.056Z,100829.54
2023-03-29T10:24:28.720Z,100822.84
2023-03-29T10:27:02.827Z,100817.52
2023-03-29T10:29:39.669Z,100814.05
2023-03-29T10:32:24.109Z,100815.84
2023-03-29T10:34:55.688Z,100812.70
2023-03-29T10:37:27.038Z,100814.86
2023-03-29T10:39:57.539Z,100815.19
2023-03-29T10:42:29.638Z,100812.76
2023-03-29T10:45:01.704Z,100811.88
2023-03-29T10:47:35.357Z,100804.55
2023-03-29T10:50:10.366Z,100802.23
2023-03-29T10:52:42.533Z,100807.64
2023-03-29T10:55:15.385Z,100807.11
2023-03-29T10:57:52.698Z,100807.55
2023-03-29T11:00:29.263Z,100806.77
2023-03-29T11:03:18.819Z,100803.54
2023-03-29T11:05:57.392Z,100804.77
2023-03-29T11:08:41.603Z,100805.95
2023-03-29T11:11:30.236Z,100801.16
2023-03-29T11:14:06.494Z,100794.64
2023-03-29T11:16:46.916Z,100794.02
2023-03-29T11:19:40.598Z,100795.36
2023-03-29T11:22:17.516Z,100784.48
2023-03-29T11:25:03.368Z,100780.95
2023-03-29T11:27:42.184Z,100776.64
2023-03-29T11:30:20.219Z,100784.86
2023-03-29T11:33:00.648Z,100779.17
2023-03-29T11:35:43.505Z,100768.23
2023-03-29T11:38:23.472Z,100760.11
2023-03-29T11:41:03.204Z,100757.19
2023-03-29T11:43:39.776Z,100759.23
2023-03-29T11:46:16.868Z,100762.63
2023-03-29T11:48:53.947Z,100756.09
2023-03-29T11:51:27.752Z,100752.83
2023-03-29T11:54:08.955Z,100757.60
2023-03-29T11:56:45.611Z,100757.76
2023-03-29T11:59:23.615Z,100756.86
2023-03-29T12:01:57.530Z,100762.52
2023-03-29T12:04:33.878Z,100762.61
2023-03-29T12:07:13.949Z,100756.86
2023-03-29T12:09:52.154Z,100756.80
2023-03-29T12:12:27.795Z,100757.61
2023-03-29T12:15:04.936Z,100759.05
2023-03-29T12:17:43.243Z,100757.27
2023-03-29T12:20:23.361Z,100753.56
2023-03-29T12:22:54.713Z,100750.21
2023-03-29T12:25:29.924Z,100745.64
2023-03-29T12:28:17.058Z,100743.09
2023-03-29T12:31:02.252Z,100743.05
2023-03-29T12:33:43.709Z,100744.11
2023-03-29T12:36:32.570Z,100740.18
2023-03-29T12:39:03.700Z,100730.39
2023-03-29T12:41:41.654Z,100731.42
2023-03-29T12:44:17.550Z,100728.65
2023-03-29T12:46:48.079Z,100727.76
2023-03-29T12:49:28.200Z,100723.75
2023-03-29T12:52:00.956Z,100718.19
2023-03-29T12:54:34.180Z,100716.88
2023-03-29T12:57:20.875Z,100719.52
2023-03-29T12:59:52.458Z,100713.55
2023-03-29T13:02:37.647Z,100707.55
2023-03-29T13:05:36.192Z,100705.06
2023-03-29T13:08:27.900Z,100706.04
2023-03-29T13:10:58.717Z,100705.13
2023-03-29T13:13:32.128Z,100701.33
2023-03-29T13:16:14.970Z,100703.44
2023-03-29T13:19:01.251Z,100701.92
2023-03-29T13:21:41.166Z,100703.80
2023-03-29T13:24:30.039Z,100705.36
2023-03-29T13:27:07.345Z,100709.77
2023-03-29T13:29:54.103Z,100703.38
2023-03-29T13:32:38.218Z,100697.47
2023-03-29T13:35:22.421Z,100690.39
2023-03-29T13:38:05.124Z,100688.27
2023-03-29T13:40:46.834Z,100690.77
2023-03-29T13:43:31.695Z,100686.59
2023-03-29T13:46:23.099Z,100687.80
2023-03-29T13:48:59.376Z,100681.24
2023-03-29T13:51:42.796Z,100678.86
2023-03-29T13:54:27.778Z,100677.42
2023-03-29T13:57:07.602Z,100675.67
2023-03-29T13:59:44.158Z,100669.70
2023-03-29T14:02:22.870Z,100667.81
2023-03-29T14:04:55.928Z,100668.98
2023-03-29T14:07:29.676Z,100668.63
2023-03-29T14:10:01.407Z,100670.42
2023-03-29T14:12:39.511Z,100664.67
2023-03-29T14:15:23.203Z,100668.34
2023-03-29T14:18:00.252Z,100672.31
2023-03-29T14:20:31.633Z,100678.70
2023-03-29T14:23:02.042Z,100674.94
2023-03-29T14:25:32.883Z,100676.48
2023-03-29T14:28:03.376Z,100674.95
2023-03-29T14:30:34.343Z,100679.28
2023-03-29T14:33:05.299Z,100677.34
2023-03-29T14:35:37.902Z,100674.81
2023-03-29T14:38:13.335Z,100674.55
2023-03-29T14:40:46.311Z,100670.53
2023-03-29T14:43:20.264Z,100667.80
2023-03-29T14:45:51.577Z,100664.86
2023-03-29T14:48:23.275Z,100675.67
2023-03-29T14:50:54.241Z,100680.17
2023-03-29T14:53:26.022Z,100683.20
2023-03-29T14:55:57.755Z,100680.73
2023-03-29T14:58:33.127Z,100675.38
2023-03-29T15:01:15.045Z,100673.21
2023-03-29T15:03:54.978Z,100671.02
2023-03-29T15:06:27.534Z,100669.05
2023-03-29T15:09:06.011Z,100666.76
2023-03-29T15:11:39.696Z,100665.52
2023-03-29T15:14:16.921Z,100666.57
2023-03-29T15:16:49.022Z,100669.98
2023-03-29T15:19:22.187Z,100668.66
2023-03-29T15:21:53.246Z,100659.50
2023-03-29T15:24:29.225Z,100658.34
2023-03-29T15:27:05.686Z,100650.08
2023-03-29T15:29:43.830Z,100645.69
2023-03-29T15:32:23.894Z,100642.21
2023-03-29T15:35:02.751Z,100640.27
2023-03-29T15:37:33.629Z,100637.07
2023-03-29T15:40:10.876Z,100636.79
2023-03-29T15:42:41.421Z,100633.13
2023-03-29T15:45:18.142Z,100631.46
2023-03-29T15:47:48.748Z,100634.42
2023-03-29T15:50:19.974Z,100630.48
2023-03-29T15:52:50.382Z,100625.70
2023-03-29T15:55:20.766Z,100616.98
2023-03-29T15:57:54.479Z,100609.94
2023-03-29T16:00:25.764Z,100603.37
2023-03-29T16:02:57.904Z,100596.20
2023-03-29T16:05:28.289Z,100596.50
2023-03-29T16:07:58.644Z,100597.41
2023-03-29T16:10:28.944Z,100594.40
2023-03-29T16:12:59.879Z,100586.52
2023-03-29T16:15:31.836Z,100583.98
2023-03-29T16:18:02.551Z,100587.83
2023-03-29T16:20:33.265Z,100588.09
2023-03-29T16:23:08.771Z,100589.40
2023-03-29T16:25:41.013Z,100587.89
2023-03-29T16:28:14.148Z,100588.60
2023-03-29T16:30:52.874Z,100584.43
2023-03-29T16:33:23.742Z,100577.86
2023-03-29T16:35:54.270Z,100577.73
2023-03-29T16:38:26.026Z,100582.33
2023-03-29T16:40:57.115Z,100584.35
2023-03-29T16:43:28.191Z,100577.80
2023-03-29T16:46:09.638Z,100577.77
2023-03-29T16:48:40.661Z,100569.52
2023-03-29T16:51:12.191Z,100570.30
2023-03-29T16:53:43.066Z,100565.08
2023-03-29T16:56:14.725Z,100563.95
2023-03-29T16:58:45.455Z,100564.02
2023-03-29T17:01:17.921Z,100565.30
2023-03-29T17:03:48.564Z,100572.90
2023-03-29T17:06:19.487Z,100575.52
2023-03-29T17:08:50.506Z,100577.73
2023-03-29T17:11:23.066Z,100576.46
2023-03-29T17:13:54.113Z,100575.60
2023-03-29T17:16:24.789Z,100574.28
2023-03-29T17:18:55.262Z,100571.98
2023-03-29T17:21:26.357Z,100573.85
2023-03-29T17:23:56.854Z,100576.25
2023-03-29T17:26:28.207Z,100577.02
2023-03-29T17:28:58.566Z,100576.64
2023-03-29T17:31:29.222Z,100575.31
2023-03-29T17:34:00.193Z,100575.23
2023-03-29T17:36:33.721Z,100570.61
2023-03-29T17:39:05.210Z,100571.29
2023-03-29T17:41:35.597Z,100566.72
2023-03-29T17:44:06.000Z,100570.82
2023-03-29T17:46:37.822Z,100567.96
2023-03-29T17:49:08.275Z,100567.27
2023-03-29T17:51:39.027Z,100564.70
2023-03-29T17:54:09.451Z,100557.76
2023-03-29T17:56:40.075Z,100557.30
2023-03-29T17:59:10.822Z,100551.11
2023-03-29T18:01:41.726Z,100548.67
2023-03-29T18:04:12.363Z,100543.59
2023-03-29T18:06:43.542Z,100536.64
2023-03-29T18:09:14.760Z,100534.55
2023-03-29T18:11:45.309Z,100530.13
2023-03-29T18:14:16.065Z,100533.83
2023-03-29T18:16:46.780Z,100532.70
2023-03-29T18:19:17.425Z,100523.53
2023-03-29T18:21:47.767Z,100522.90
2023-03-29T18:24:18.101Z,100516.92
2023-03-29T18:26:48.449Z,100514.58
2023-03-29T18:29:18.888Z,100512.02
2023-03-29T18:31:49.320Z,100512.10
2023-03-29T18:34:22.171Z,100517.74
2023-03-29T18:36:53.710Z,100515.90
2023-03-29T18:39:24.065Z,100510.39
2023-03-29T18:41:54.740Z,100515.52
2023-03-29T18:44:27.610Z,100517.92
2023-03-29T18:46:57.981Z,100523.44
2023-03-29T18:49:28.415Z,100524.99
2023-03-29T18:51:58.785Z,100529.67
2023-03-29T18:54:30.006Z,100525.13
2023-03-29T18:57:00.460Z,100528.06
2023-03-29T18:59:31.423Z,100530.60
2023-03-29T19:02:02.563Z,100524.38
2023-03-29T19:04:33.268Z,100521.42
2023-03-29T19:07:03.693Z,100526.27
2023-03-29T19:09:34.167Z,100528.86
2023-03-29T19:12:04.734Z,100524.74
2023-03-29T19:14:35.194Z,100527.98
2023-03-29T19:17:06.239Z,100527.98
2023-03-29T19:19:37.826Z,100521.64
2023-03-29T19:22:08.349Z,100518.73
2023-03-29T19:24:39.322Z,100522.18
2023-03-29T19:27:12.516Z,100517.41
2023-03-29T19:29:43.409Z,100517.66
2023-03-29T19:32:13.702Z,100512.07
2023-03-29T19:34:44.006Z,100509.72
2023-03-29T19:37:15.618Z,100515.47
2023-03-29T19:39:46.462Z,100514.63
2023-03-29T19:42:16.770Z,100512.95
2023-03-29T19:44:47.079Z,100506.86
2023-03-29T19:47:17.554Z,100503.91
2023-03-29T19:49:47.865Z,100499.37
2023-03-29T19:52:18.200Z,100487.72
2023-03-29T19:54:48.833Z,100482.89
2023-03-29T19:57:19.215Z,100474.02
2023-03-29T19:59:50.027Z,100469.39
2023-03-29T20:02:20.529Z,100463.63
2023-03-29T20:04:52.127Z,100459.63
2023-03-29T20:07:23.187Z,100454.13
2023-03-29T20:09:53.487Z,100447.23
2023-03-29T20:12:24.108Z,100443.61
2023-03-29T20:14:54.781Z,100447.95
2023-03-29T20:17:25.584Z,100443.23
2023-03-29T20:19:56.193Z,100443.40
2023-03-29T20:22:27.488Z,100442.80
2023-03-29T20:24:58.040Z,100442.22
2023-03-29T20:27:29.389Z,100437.56
2023-03-29T20:29:59.976Z,100437.27
2023-03-29T20:32:30.780Z,100439.96
2023-03-29T20:35:01.580Z,100440.38
2023-03-29T20:37:32.814Z,100445.08
2023-03-29T20:40:05.257Z,100438.98
2023-03-29T20:42:38.277Z,100431.12
2023-03-29T20:45:18.685Z,100423.20
2023-03-29T20:47:57.339Z,100412.61
2023-03-29T20:50:28.911Z,100402.57
2023-03-29T20:53:02.174Z,100393.79
2023-03-29T20:55:34.051Z,100386.68
2023-03-29T20:58:05.303Z,100378.29
2023-03-29T21:00:37.598Z,100372.00
2023-03-29T21:03:08.622Z,100365.06
2023-03-29T21:05:39.574Z,100361.11
2023-03-29T21:08:09.894Z,100366.45
2023-03-29T21:10:42.559Z,100355.06
2023-03-29T21:13:15.208Z,100358.67
2023-03-29T21:15:46.543Z,100361.61
2023-03-29T21:18:17.049Z,100364.39
2023-03-29T21:20:47.660Z,100362.38
2023-03-29T21:23:18.863Z,100368.15
2023-03-29T21:25:50.100Z,100372.89
2023-03-29T21:28:21.072Z,100367.29
2023-03-29T21:30:51.410Z,100368.09
2023-03-29T21:33:22.058Z,100370.66
2023-03-29T21:35:52.859Z,100368.35
2023-03-29T21:38:23.357Z,100360.23
2023-03-29T21:40:53.725Z,100352.11
2023-03-29T21:43:24.182Z,100354.05
2023-03-29T21:45:54.464Z,100343.64
2023-03-29T21:48:24.884Z,100340.77
2023-03-29T21:50:56.094Z,100342.88
2023-03-29T21:53:27.002Z,100338.30
2023-03-29T21:55:57.507Z,100335.81
2023-03-29T21:58:28.643Z,100331.34
2023-03-29T22:00:59.125Z,100326.10
2023-03-29T22:03:30.227Z,100328.41
2023-03-29T22:06:02.806Z,100324.02
2023-03-29T22:08:33.990Z,100323.32
2023-03-29T22:11:08.644Z,100328.36
2023-03-29T22:13:39.910Z,100324.33
2023-03-29T22:16:13.825Z,100328.58
2023-03-29T22:18:46.936Z,100325.80
2023-03-29T22:21:19.254Z,100322.48
2023-03-29T22:23:51.743Z,100324.14
2023-03-29T22:26:24.746Z,100320.27
2023-03-29T22:28:56.107Z,100312.83
2023-03-29T22:31:28.201Z,100300.13
2023-03-29T22:34:00.646Z,100302.20
2023-03-29T22:36:32.342Z,100298.48
2023-03-29T22:39:02.680Z,100291.35
2023-03-29T22:41:33.533Z,100292.44
2023-03-29T22:44:04.161Z,100289.71
2023-03-29T22:46:34.957Z,100282.33
2023-03-29T22:49:06.063Z,100273.09
2023-03-29T22:51:36.426Z,100261.15
2023-03-29T22:54:07.127Z,100258.55
2023-03-29T22:56:37.455Z,100246.02
2023-03-29T22:59:08.186Z,100243.89
2023-03-29T23:01:38.754Z,100237.92
2023-03-29T23:04:09.378Z,100237.58
2023-03-29T23:06:39.763Z,100229.55
2023-03-29T23:09:10.508Z,100217.80
2023-03-29T23:11:40.945Z,100216.15
2023-03-29T23:14:11.567Z,100220.31
2023-03-29T23:16:42.296Z,100211.91
2023-03-29T23:19:12.730Z,100215.70
2023-03-29T23:21:43.081Z,100222.98
2023-03-29T23:24:13.401Z,100220.91
2023-03-29T23:26:44.078Z,100219.15
2023-03-29T23:29:15.348Z,100216.09
2023-03-29T23:31:47.753Z,100215.38
2023-03-29T23:34:18.168Z,100208.54
2023-03-29T23:36:48.492Z,100205.23
2023-03-29T23:39:18.756Z,100197.83
2023-03-29T23:41:49.114Z,100194.94
2023-03-29T23:44:19.416Z,100193.69
2023-03-29T23:46:49.720Z,100194.70
2023-03-29T23:49:22.962Z,100192.86
2023-03-29T23:51:53.311Z,100187.44
2023-03-29T23:54:23.936Z,100183.00
2023-03-29T23:56:54.277Z,100174.06
2023-03-29T23:59:29.711Z,100169.83
